createdAt,value
2018-01-26T00:00:10.877Z,26.67
2018-01-26T00:02:38.537Z,27.90
2018-01-26T00:05:06.177Z,30.27
2018-01-26T00:07:34.626Z,25.53
2018-01-26T00:10:02.231Z,23.80
2018-01-26T00:12:29.848Z,23.97
2018-01-26T00:14:57.416Z,27.03
2018-01-26T00:17:25.021Z,25.53
2018-01-26T00:19:55.344Z,26.77
2018-01-26T00:22:22.919Z,23.37
2018-01-26T00:24:50.523Z,27.07
2018-01-26T00:27:18.917Z,28.50
2018-01-26T00:29:57.515Z,27.20
2018-01-26T00:32:25.933Z,26.90
2018-01-26T00:34:53.507Z,27.57
2018-01-26T00:37:21.069Z,25.10
2018-01-26T00:39:48.679Z,28.03
2018-01-26T00:42:18.953Z,26.67
2018-01-26T00:44:46.557Z,25.23
2018-01-26T00:47:14.948Z,32.67
2018-01-26T00:49:49.630Z,26.23
2018-01-26T00:52:18.320Z,25.27
2018-01-26T00:54:45.938Z,26.77
2018-01-26T00:57:13.519Z,27.37
2018-01-26T00:59:57.776Z,24.03
2018-01-26T01:02:25.905Z,25.97
2018-01-26T01:04:54.082Z,26.90
2018-01-26T01:07:22.790Z,23.17
2018-01-26T01:09:59.138Z,26.10
2018-01-26T01:12:26.727Z,26.33
2018-01-26T01:14:55.167Z,24.43
2018-01-26T01:17:22.759Z,26.33
2018-01-26T01:19:55.351Z,22.80
2018-01-26T01:22:23.549Z,32.03
2018-01-26T01:24:51.915Z,24.97
2018-01-26T01:27:19.525Z,31.53
2018-01-26T01:29:52.417Z,25.90
2018-01-26T01:32:20.014Z,24.20
2018-01-26T01:34:47.640Z,22.03
2018-01-26T01:37:15.247Z,25.40
2018-01-26T01:39:43.787Z,26.87
2018-01-26T01:42:11.394Z,31.23
2018-01-26T01:44:40.494Z,25.13
2018-01-26T01:47:08.140Z,29.00
2018-01-26T01:49:37.352Z,26.70
2018-01-26T01:52:05.725Z,27.10
2018-01-26T01:54:34.092Z,26.87
2018-01-26T01:57:01.720Z,22.57
2018-01-26T01:59:32.360Z,25.77
2018-01-26T02:01:59.959Z,24.10
2018-01-26T02:04:27.645Z,26.63
2018-01-26T02:06:56.697Z,22.17
2018-01-26T02:09:24.285Z,24.80
2018-01-26T02:11:52.643Z,27.70
2018-01-26T02:14:20.253Z,27.63
2018-01-26T02:16:48.609Z,28.17
2018-01-26T02:19:17.220Z,28.80
2018-01-26T02:21:44.876Z,27.40
2018-01-26T02:24:12.475Z,24.57
2018-01-26T02:26:40.100Z,32.60
2018-01-26T02:29:07.804Z,30.90
2018-01-26T02:31:35.383Z,26.73
2018-01-26T02:34:03.029Z,31.07
2018-01-26T02:36:30.678Z,35.20
2018-01-26T02:38:58.413Z,30.47
2018-01-26T02:41:26.065Z,26.73
2018-01-26T02:43:54.467Z,29.73
2018-01-26T02:46:22.091Z,28.93
2018-01-26T02:48:49.677Z,27.53
2018-01-26T02:51:18.073Z,27.17
2018-01-26T02:53:45.714Z,25.63
2018-01-26T02:56:14.101Z,23.10
2018-01-26T02:58:45.695Z,26.90
2018-01-26T03:01:13.752Z,26.77
2018-01-26T03:03:41.366Z,28.43
2018-01-26T03:06:08.955Z,35.03
2018-01-26T03:08:47.154Z,25.93
2018-01-26T03:11:14.826Z,25.00
2018-01-26T03:13:42.390Z,27.33
2018-01-26T03:16:09.988Z,33.20
2018-01-26T03:18:45.322Z,29.60
2018-01-26T03:21:12.947Z,29.80
2018-01-26T03:23:40.561Z,29.27
2018-01-26T03:26:08.212Z,28.80
2018-01-26T03:28:35.795Z,25.90
2018-01-26T03:31:03.384Z,31.47
2018-01-26T03:33:31.005Z,30.90
2018-01-26T03:35:58.635Z,27.70
2018-01-26T03:38:39.771Z,27.17
2018-01-26T03:41:08.175Z,25.00
2018-01-26T03:43:35.777Z,28.87
2018-01-26T03:46:03.343Z,28.23
2018-01-26T03:48:31.944Z,30.17
2018-01-26T03:50:59.542Z,31.07
2018-01-26T03:53:27.134Z,30.83
2018-01-26T03:55:54.832Z,32.33
2018-01-26T03:58:24.382Z,27.53
2018-01-26T04:00:51.991Z,30.07
2018-01-26T04:03:20.351Z,32.33
2018-01-26T04:05:47.964Z,36.73
2018-01-26T04:08:15.535Z,31.23
2018-01-26T04:10:43.191Z,29.73
2018-01-26T04:13:11.564Z,29.93
2018-01-26T04:15:39.144Z,34.00
2018-01-26T04:18:20.401Z,30.83
2018-01-26T04:20:48.030Z,30.40
2018-01-26T04:23:16.379Z,33.50
2018-01-26T04:25:44.028Z,35.83
2018-01-26T04:28:15.882Z,34.33
2018-01-26T04:30:43.502Z,35.93
2018-01-26T04:33:11.916Z,34.00
2018-01-26T04:35:39.528Z,34.73
2018-01-26T04:38:07.208Z,44.37
2018-01-26T04:40:34.862Z,41.67
2018-01-26T04:43:02.500Z,39.73
2018-01-26T04:45:30.157Z,42.90
2018-01-26T04:48:01.598Z,41.37
2018-01-26T04:50:29.809Z,40.40
2018-01-26T04:52:57.432Z,38.83
2018-01-26T04:55:25.866Z,39.83
2018-01-26T04:57:55.325Z,36.40
2018-01-26T05:00:23.383Z,39.50
2018-01-26T05:02:50.997Z,42.00
2018-01-26T05:05:18.618Z,41.23
2018-01-26T05:07:47.322Z,42.13
2018-01-26T05:10:14.937Z,38.87
2018-01-26T05:12:42.594Z,48.03
2018-01-26T05:15:10.952Z,44.87
2018-01-26T05:17:38.566Z,43.47
2018-01-26T05:20:06.968Z,37.47
2018-01-26T05:22:34.636Z,44.47
2018-01-26T05:25:02.275Z,40.83
2018-01-26T05:27:29.899Z,34.83
2018-01-26T05:29:57.466Z,38.63
2018-01-26T05:32:25.178Z,34.33
2018-01-26T05:34:52.838Z,32.63
2018-01-26T05:37:20.437Z,42.23
2018-01-26T05:39:49.019Z,38.10
2018-01-26T05:42:16.620Z,37.20
2018-01-26T05:44:45.041Z,36.63
2018-01-26T05:47:13.343Z,40.13
2018-01-26T05:49:41.978Z,43.43
2018-01-26T05:52:10.412Z,40.67
2018-01-26T05:54:38.074Z,37.93
2018-01-26T05:57:06.440Z,36.20
2018-01-26T05:59:35.034Z,41.17
2018-01-26T06:02:03.224Z,40.47
2018-01-26T06:04:30.992Z,46.03
2018-01-26T06:06:59.442Z,35.67
2018-01-26T06:09:28.962Z,38.97
2018-01-26T06:11:56.622Z,39.67
2018-01-26T06:14:24.820Z,36.20
2018-01-26T06:16:52.466Z,35.93
2018-01-26T06:19:22.021Z,39.07
2018-01-26T06:21:50.351Z,32.40
2018-01-26T06:24:17.985Z,33.07
2018-01-26T06:26:45.632Z,35.10
2018-01-26T06:29:13.368Z,34.30
2018-01-26T06:31:41.003Z,36.60
2018-01-26T06:34:08.744Z,33.83
2018-01-26T06:36:36.351Z,37.30
2018-01-26T06:39:04.938Z,37.63
2018-01-26T06:41:32.686Z,35.70
2018-01-26T06:44:00.271Z,41.57
2018-01-26T06:46:27.880Z,38.37
2018-01-26T06:49:03.730Z,33.00
2018-01-26T06:51:31.354Z,30.10
2018-01-26T06:53:58.976Z,35.80
2018-01-26T06:56:26.634Z,41.70
2018-01-26T06:58:57.318Z,36.77
2018-01-26T07:01:24.904Z,42.60
2018-01-26T07:03:55.881Z,32.07
2018-01-26T07:06:23.476Z,34.40
2018-01-26T07:08:51.112Z,37.30
2018-01-26T07:11:18.695Z,34.13
2018-01-26T07:13:47.899Z,32.93
2018-01-26T07:16:15.885Z,37.10
2018-01-26T07:18:45.652Z,38.90
2018-01-26T07:21:13.398Z,35.87
2018-01-26T07:23:41.166Z,40.27
2018-01-26T07:26:09.566Z,41.67
2018-01-26T07:28:47.293Z,40.30
2018-01-26T07:31:15.064Z,42.23
2018-01-26T07:33:45.042Z,45.67
2018-01-26T07:36:12.938Z,39.83
2018-01-26T07:38:45.487Z,43.90
2018-01-26T07:41:13.378Z,44.47
2018-01-26T07:43:41.052Z,36.83
2018-01-26T07:46:12.958Z,57.97
2018-01-26T07:48:43.992Z,49.10
2018-01-26T07:51:12.938Z,49.80
2018-01-26T07:53:40.885Z,51.43
2018-01-26T07:56:08.673Z,51.20
2018-01-26T07:58:38.149Z,53.73
2018-01-26T08:01:05.927Z,48.67
2018-01-26T08:03:33.567Z,45.73
2018-01-26T08:06:01.976Z,50.27
2018-01-26T08:08:31.545Z,44.93
2018-01-26T08:11:00.462Z,46.97
2018-01-26T08:13:28.866Z,51.57
2018-01-26T08:15:56.550Z,56.37
2018-01-26T08:18:31.070Z,59.53
2018-01-26T08:20:58.848Z,63.70
2018-01-26T08:23:29.251Z,56.57
2018-01-26T08:25:58.154Z,56.23
2018-01-26T08:28:26.458Z,53.10
2018-01-26T08:30:54.151Z,68.40
2018-01-26T08:33:22.720Z,66.03
2018-01-26T08:35:50.391Z,60.60
2018-01-26T08:38:18.757Z,66.87
2018-01-26T08:40:46.397Z,63.10
2018-01-26T08:43:15.355Z,55.47
2018-01-26T08:45:42.951Z,56.03
2018-01-26T08:48:11.483Z,59.50
2018-01-26T08:50:39.967Z,48.83
2018-01-26T08:53:08.376Z,48.77
2018-01-26T08:55:36.104Z,52.90
2018-01-26T08:58:03.720Z,48.00
2018-01-26T09:00:31.345Z,44.47
2018-01-26T09:02:58.952Z,43.87
2018-01-26T09:05:27.393Z,54.60
2018-01-26T09:07:56.840Z,55.97
2018-01-26T09:10:25.342Z,49.47
2018-01-26T09:12:53.500Z,43.83
2018-01-26T09:15:21.089Z,46.80
2018-01-26T09:17:48.665Z,47.67
2018-01-26T09:20:16.909Z,50.27
2018-01-26T09:22:44.539Z,46.47
2018-01-26T09:25:12.124Z,50.47
2018-01-26T09:27:40.305Z,45.70
2018-01-26T09:30:07.951Z,53.10
2018-01-26T09:32:35.532Z,50.87
2018-01-26T09:35:03.492Z,51.80
2018-01-26T09:37:38.172Z,53.70
2018-01-26T09:40:05.750Z,49.33
2018-01-26T09:42:34.079Z,50.97
2018-01-26T09:45:01.710Z,48.30
2018-01-26T09:47:29.400Z,53.80
2018-01-26T09:49:57.971Z,45.40
2018-01-26T09:52:25.574Z,49.10
2018-01-26T09:54:53.145Z,44.77
2018-01-26T09:57:20.752Z,51.50
2018-01-26T09:59:57.999Z,45.83
2018-01-26T10:02:26.076Z,44.37
2018-01-26T10:04:53.799Z,40.97
2018-01-26T10:07:22.937Z,40.03
2018-01-26T10:09:50.530Z,42.97
2018-01-26T10:12:18.124Z,55.97
2018-01-26T10:14:45.787Z,47.63
2018-01-26T10:17:14.012Z,46.87
2018-01-26T10:19:41.556Z,48.30
2018-01-26T10:22:10.040Z,40.90
2018-01-26T10:24:37.624Z,43.90
2018-01-26T10:27:05.952Z,43.47
2018-01-26T10:29:36.892Z,43.00
2018-01-26T10:32:05.232Z,49.00
2018-01-26T10:34:33.806Z,49.73
2018-01-26T10:37:02.174Z,43.37
2018-01-26T10:39:47.454Z,48.43
2018-01-26T10:42:15.064Z,49.27
2018-01-26T10:44:42.657Z,50.57
2018-01-26T10:47:10.277Z,41.43
2018-01-26T10:49:38.918Z,51.20
2018-01-26T10:52:06.637Z,45.87
2018-01-26T10:54:34.221Z,52.60
2018-01-26T10:57:01.863Z,44.00
2018-01-26T11:02:23.194Z,45.13
2018-01-26T11:04:50.817Z,45.13
2018-01-26T11:07:19.016Z,44.50
2018-01-26T11:09:51.176Z,46.97
2018-01-26T11:12:18.754Z,47.73
2018-01-26T11:14:47.110Z,41.40
2018-01-26T11:17:14.715Z,39.97
2018-01-26T11:19:44.156Z,43.87
2018-01-26T11:22:12.833Z,38.70
2018-01-26T11:24:40.504Z,44.03
2018-01-26T11:27:08.697Z,44.40
2018-01-26T11:29:36.259Z,46.37
2018-01-26T11:32:03.903Z,41.27
2018-01-26T11:34:31.481Z,40.73
2018-01-26T11:36:59.093Z,40.40
2018-01-26T11:39:28.341Z,41.87
2018-01-26T11:41:56.426Z,44.67
2018-01-26T11:44:24.030Z,41.83
2018-01-26T11:46:51.634Z,38.43
2018-01-26T11:49:20.243Z,40.10
2018-01-26T11:51:48.672Z,42.17
2018-01-26T11:54:16.964Z,40.20
2018-01-26T11:56:44.557Z,43.87
2018-01-26T11:59:19.646Z,40.37
2018-01-26T12:01:47.535Z,37.00
2018-01-26T12:04:15.145Z,37.20
2018-01-26T12:06:42.802Z,40.37
2018-01-26T12:09:11.364Z,40.80
2018-01-26T12:11:38.958Z,42.37
2018-01-26T12:14:07.397Z,45.43
2018-01-26T12:16:35.079Z,41.93
2018-01-26T12:19:06.125Z,44.23
2018-01-26T12:21:34.599Z,41.63
2018-01-26T12:24:02.254Z,40.50
2018-01-26T12:26:30.823Z,43.23
2018-01-26T12:29:00.656Z,43.70
2018-01-26T12:31:28.390Z,42.00
2018-01-26T12:33:57.516Z,43.07
2018-01-26T12:36:26.198Z,43.37
2018-01-26T12:38:54.574Z,40.47
2018-01-26T12:41:22.233Z,48.13
2018-01-26T12:43:49.830Z,43.80
2018-01-26T12:46:17.369Z,43.23
2018-01-26T12:48:44.948Z,42.93
2018-01-26T12:51:13.286Z,40.73
2018-01-26T12:53:41.461Z,47.73
2018-01-26T12:56:09.135Z,40.20
2018-01-26T12:58:42.283Z,49.37
2018-01-26T13:01:10.697Z,41.03
2018-01-26T13:03:38.453Z,48.23
2018-01-26T13:06:06.908Z,43.93
2018-01-26T13:08:34.554Z,80.73
2018-01-26T13:11:02.140Z,50.43
2018-01-26T13:13:30.267Z,84.73
2018-01-26T13:15:58.573Z,73.83
2018-01-26T13:18:34.791Z,50.23
2018-01-26T13:21:02.410Z,45.27
2018-01-26T13:23:30.030Z,45.30
2018-01-26T13:25:57.754Z,46.80
2018-01-26T13:28:29.126Z,46.10
2018-01-26T13:30:56.759Z,50.00
2018-01-26T13:33:25.138Z,43.80
2018-01-26T13:35:52.747Z,50.23
2018-01-26T13:38:23.714Z,58.53
2018-01-26T13:40:51.916Z,50.67
2018-01-26T13:43:19.590Z,52.73
2018-01-26T13:45:47.250Z,53.90
2018-01-26T13:48:15.117Z,114.73
2018-01-26T13:50:48.429Z,59.73
2018-01-26T13:53:26.095Z,50.43
2018-01-26T13:55:55.524Z,51.70
2018-01-26T13:58:26.614Z,54.07
2018-01-26T14:00:54.216Z,57.50
2018-01-26T14:03:21.884Z,56.77
2018-01-26T14:05:49.460Z,57.40
2018-01-26T14:08:17.924Z,56.97
2018-01-26T14:10:46.456Z,59.17
2018-01-26T14:13:17.190Z,58.03
2018-01-26T14:15:44.866Z,55.07
2018-01-26T14:18:27.153Z,58.70
2018-01-26T14:20:55.385Z,56.73
2018-01-26T14:23:23.025Z,61.27
2018-01-26T14:25:50.679Z,62.60
2018-01-26T14:28:34.929Z,62.53
2018-01-26T14:31:02.617Z,69.63
2018-01-26T14:33:30.795Z,60.13
2018-01-26T14:35:58.441Z,68.17
2018-01-26T14:38:28.089Z,64.20
2018-01-26T14:40:56.208Z,69.83
2018-01-26T14:43:23.896Z,60.60
2018-01-26T14:45:51.566Z,63.93
2018-01-26T14:48:19.223Z,66.97
2018-01-26T14:50:46.817Z,62.47
2018-01-26T14:53:14.452Z,62.60
2018-01-26T14:55:42.084Z,66.43
2018-01-26T14:58:18.158Z,63.40
2018-01-26T15:00:45.786Z,59.50
2018-01-26T15:03:14.197Z,55.37
2018-01-26T15:05:41.812Z,61.30
2018-01-26T15:08:10.740Z,57.07
2018-01-26T15:10:38.450Z,73.50
2018-01-26T15:13:06.103Z,72.47
2018-01-26T15:15:33.757Z,106.67
2018-01-26T15:18:01.355Z,82.43
2018-01-26T15:20:31.395Z,91.00
2018-01-26T15:25:47.289Z,68.03
2018-01-26T15:28:16.814Z,64.80
2018-01-26T15:30:44.431Z,65.30
2018-01-26T15:33:12.124Z,76.50
2018-01-26T15:35:41.102Z,67.50
2018-01-26T15:38:12.940Z,70.97
2018-01-26T15:40:40.671Z,64.07
2018-01-26T15:43:09.322Z,67.17
2018-01-26T15:45:36.920Z,69.37
2018-01-26T15:48:05.567Z,62.23
2018-01-26T15:50:33.289Z,67.63
2018-01-26T15:53:00.993Z,56.57
2018-01-26T15:55:31.287Z,58.10
2018-01-26T15:57:59.580Z,53.27
2018-01-26T16:00:33.195Z,59.03
2018-01-26T16:03:00.903Z,57.53
2018-01-26T16:05:28.621Z,55.00
2018-01-26T16:07:57.459Z,51.03
2018-01-26T16:10:25.300Z,54.93
2018-01-26T16:12:52.961Z,57.63
2018-01-26T16:15:21.028Z,55.27
2018-01-26T16:17:51.208Z,52.77
2018-01-26T16:20:19.568Z,49.93
2018-01-26T16:22:47.302Z,47.17
2018-01-26T16:25:16.898Z,49.53
2018-01-26T16:27:44.744Z,47.83
2018-01-26T16:30:12.415Z,49.87
2018-01-26T16:32:40.438Z,44.37
2018-01-26T16:35:08.092Z,43.90
2018-01-26T16:37:40.108Z,50.40
2018-01-26T16:40:10.439Z,46.70
2018-01-26T16:42:38.099Z,48.67
2018-01-26T16:45:06.605Z,47.90
2018-01-26T16:47:34.301Z,47.67
2018-01-26T16:50:01.937Z,45.00
2018-01-26T16:52:29.733Z,51.47
2018-01-26T16:54:58.218Z,51.07
2018-01-26T16:57:26.118Z,53.90
2018-01-26T16:59:57.612Z,50.03
2018-01-26T17:02:26.524Z,55.30
2018-01-26T17:04:55.612Z,54.93
2018-01-26T17:07:25.908Z,50.90
2018-01-26T17:10:06.426Z,57.47
2018-01-26T17:12:35.224Z,52.60
2018-01-26T17:15:04.426Z,51.27
2018-01-26T18:34:10.554Z,68.30
2018-01-26T18:36:48.086Z,62.93
2018-01-26T18:44:37.283Z,60.73
2018-01-26T18:47:08.388Z,61.23
